sensor_id;sensor_type;location;lat;lon;timestamp;P1;durP1;ratioP1;P2;durP2;ratioP2
66987;SDS011;53908;51.464;-2.588;2022-09-27T00:01:08;3.22;;;0.80;;
66987;SDS011;53908;51.464;-2.588;2022-09-27T00:03:35;2.63;;;1.10;;
66987;SDS011;53908;51.464;-2.588;2022-09-27T00:06:09;5.22;;;1.08;;
66987;SDS011;53908;51.464;-2.588;2022-09-27T00:08:40;3.47;;;0.90;;
66987;SDS011;53908;51.464;-2.588;2022-09-27T00:11:07;8.02;;;1.17;;
66987;SDS011;53908;51.464;-2.588;2022-09-27T00:13:39;6.55;;;1.00;;
66987;SDS011;53908;51.464;-2.588;2022-09-27T00:16:05;4.60;;;1.10;;
66987;SDS011;53908;51.464;-2.588;2022-09-27T00:18:30;4.60;;;1.17;;
66987;SDS011;53908;51.464;-2.588;2022-09-27T00:21:03;2.63;;;1.00;;
66987;SDS011;53908;51.464;-2.588;2022-09-27T00:23:32;4.18;;;1.08;;
66987;SDS011;53908;51.464;-2.588;2022-09-27T00:25:58;5.07;;;1.00;;
66987;SDS011;53908;51.464;-2.588;2022-09-27T00:28:24;4.70;;;1.00;;
66987;SDS011;53908;51.464;-2.588;2022-09-27T00:30:50;4.20;;;1.25;;
66987;SDS011;53908;51.464;-2.588;2022-09-27T00:33:15;3.83;;;0.80;;
66987;SDS011;53908;51.464;-2.588;2022-09-27T00:35:41;7.13;;;1.52;;
66987;SDS011;53908;51.464;-2.588;2022-09-27T00:38:07;14.75;;;1.52;;
66987;SDS011;53908;51.464;-2.588;2022-09-27T00:40:32;8.85;;;1.67;;
66987;SDS011;53908;51.464;-2.588;2022-09-27T00:42:59;7.82;;;1.38;;
66987;SDS011;53908;51.464;-2.588;2022-09-27T00:45:24;8.63;;;1.25;;
66987;SDS011;53908;51.464;-2.588;2022-09-27T00:47:51;4.75;;;1.00;;
66987;SDS011;53908;51.464;-2.588;2022-09-27T00:50:22;7.38;;;1.08;;
66987;SDS011;53908;51.464;-2.588;2022-09-27T00:55:52;4.50;;;1.00;;
66987;SDS011;53908;51.464;-2.588;2022-09-27T00:58:20;2.42;;;1.27;;
66987;SDS011;53908;51.464;-2.588;2022-09-27T01:00:50;4.07;;;1.10;;
66987;SDS011;53908;51.464;-2.588;2022-09-27T01:03:22;8.52;;;1.17;;
66987;SDS011;53908;51.464;-2.588;2022-09-27T01:05:52;6.03;;;1.00;;
66987;SDS011;53908;51.464;-2.588;2022-09-27T01:08:18;6.32;;;0.98;;
66987;SDS011;53908;51.464;-2.588;2022-09-27T01:10:51;3.10;;;1.00;;
66987;SDS011;53908;51.464;-2.588;2022-09-27T01:13:27;5.70;;;1.23;;
66987;SDS011;53908;51.464;-2.588;2022-09-27T01:16:13;8.20;;;1.20;;
66987;SDS011;53908;51.464;-2.588;2022-09-27T01:19:06;5.93;;;1.17;;
66987;SDS011;53908;51.464;-2.588;2022-09-27T01:21:44;6.18;;;1.38;;
66987;SDS011;53908;51.464;-2.588;2022-09-27T01:27:16;4.90;;;1.35;;
66987;SDS011;53908;51.464;-2.588;2022-09-27T01:33:25;7.03;;;1.30;;
66987;SDS011;53908;51.464;-2.588;2022-09-27T01:38:43;8.15;;;1.30;;
66987;SDS011;53908;51.464;-2.588;2022-09-27T01:41:35;8.57;;;1.63;;
66987;SDS011;53908;51.464;-2.588;2022-09-27T01:44:16;9.88;;;1.40;;
66987;SDS011;53908;51.464;-2.588;2022-09-27T01:46:56;4.75;;;1.08;;
66987;SDS011;53908;51.464;-2.588;2022-09-27T01:49:38;10.18;;;1.85;;
66987;SDS011;53908;51.464;-2.588;2022-09-27T01:58:02;7.60;;;1.50;;
66987;SDS011;53908;51.464;-2.588;2022-09-27T02:00:49;5.15;;;1.13;;
66987;SDS011;53908;51.464;-2.588;2022-09-27T02:03:17;5.95;;;1.25;;
66987;SDS011;53908;51.464;-2.588;2022-09-27T02:10:57;8.18;;;1.70;;
66987;SDS011;53908;51.464;-2.588;2022-09-27T02:21:55;8.80;;;1.23;;
66987;SDS011;53908;51.464;-2.588;2022-09-27T02:24:26;10.93;;;1.40;;
66987;SDS011;53908;51.464;-2.588;2022-09-27T02:27:06;5.05;;;1.17;;
66987;SDS011;53908;51.464;-2.588;2022-09-27T02:29:38;9.85;;;1.50;;
66987;SDS011;53908;51.464;-2.588;2022-09-27T02:32:07;7.90;;;1.27;;
66987;SDS011;53908;51.464;-2.588;2022-09-27T02:34:32;4.57;;;1.02;;
66987;SDS011;53908;51.464;-2.588;2022-09-27T02:37:01;10.68;;;1.42;;
66987;SDS011;53908;51.464;-2.588;2022-09-27T02:39:26;8.55;;;1.40;;
66987;SDS011;53908;51.464;-2.588;2022-09-27T02:41:52;10.52;;;1.50;;
66987;SDS011;53908;51.464;-2.588;2022-09-27T02:44:22;8.20;;;1.75;;
66987;SDS011;53908;51.464;-2.588;2022-09-27T02:49:37;7.20;;;1.52;;
66987;SDS011;53908;51.464;-2.588;2022-09-27T02:55:23;7.88;;;1.58;;
66987;SDS011;53908;51.464;-2.588;2022-09-27T03:00:34;10.52;;;2.05;;
66987;SDS011;53908;51.464;-2.588;2022-09-27T03:03:58;10.18;;;1.75;;
66987;SDS011;53908;51.464;-2.588;2022-09-27T03:06:02;9.25;;;1.88;;
66987;SDS011;53908;51.464;-2.588;2022-09-27T03:08:29;12.13;;;1.85;;
66987;SDS011;53908;51.464;-2.588;2022-09-27T03:10:55;15.07;;;2.40;;
66987;SDS011;53908;51.464;-2.588;2022-09-27T03:13:20;10.68;;;2.03;;
66987;SDS011;53908;51.464;-2.588;2022-09-27T03:15:46;13.68;;;2.10;;
66987;SDS011;53908;51.464;-2.588;2022-09-27T03:18:11;9.68;;;1.48;;
66987;SDS011;53908;51.464;-2.588;2022-09-27T03:20:36;10.50;;;1.48;;
66987;SDS011;53908;51.464;-2.588;2022-09-27T03:23:02;13.15;;;2.08;;
66987;SDS011;53908;51.464;-2.588;2022-09-27T03:25:27;11.35;;;1.60;;
66987;SDS011;53908;51.464;-2.588;2022-09-27T03:27:53;11.52;;;1.80;;
66987;SDS011;53908;51.464;-2.588;2022-09-27T03:30:18;13.57;;;1.70;;
66987;SDS011;53908;51.464;-2.588;2022-09-27T03:32:44;11.73;;;1.92;;
66987;SDS011;53908;51.464;-2.588;2022-09-27T03:35:10;15.63;;;2.25;;
66987;SDS011;53908;51.464;-2.588;2022-09-27T03:37:36;9.07;;;1.52;;
66987;SDS011;53908;51.464;-2.588;2022-09-27T03:40:02;17.02;;;2.53;;
66987;SDS011;53908;51.464;-2.588;2022-09-27T03:42:28;10.98;;;2.00;;
66987;SDS011;53908;51.464;-2.588;2022-09-27T03:44:53;6.75;;;1.77;;
66987;SDS011;53908;51.464;-2.588;2022-09-27T03:47:20;12.32;;;2.10;;
66987;SDS011;53908;51.464;-2.588;2022-09-27T03:49:47;13.07;;;2.60;;
66987;SDS011;53908;51.464;-2.588;2022-09-27T03:52:12;13.60;;;2.05;;
66987;SDS011;53908;51.464;-2.588;2022-09-27T03:54:38;11.98;;;2.08;;
66987;SDS011;53908;51.464;-2.588;2022-09-27T03:57:03;10.98;;;1.98;;
66987;SDS011;53908;51.464;-2.588;2022-09-27T03:59:29;10.38;;;2.17;;
66987;SDS011;53908;51.464;-2.588;2022-09-27T04:01:54;17.13;;;2.88;;
66987;SDS011;53908;51.464;-2.588;2022-09-27T04:04:20;12.60;;;1.83;;
66987;SDS011;53908;51.464;-2.588;2022-09-27T04:06:45;12.55;;;2.20;;
66987;SDS011;53908;51.464;-2.588;2022-09-27T04:09:11;15.88;;;2.20;;
66987;SDS011;53908;51.464;-2.588;2022-09-27T04:11:36;12.05;;;2.35;;
66987;SDS011;53908;51.464;-2.588;2022-09-27T04:14:02;10.52;;;2.20;;
66987;SDS011;53908;51.464;-2.588;2022-09-27T04:16:29;13.77;;;1.55;;
66987;SDS011;53908;51.464;-2.588;2022-09-27T04:18:55;10.40;;;1.98;;
66987;SDS011;53908;51.464;-2.588;2022-09-27T04:21:21;12.80;;;1.92;;
66987;SDS011;53908;51.464;-2.588;2022-09-27T04:23:46;11.45;;;1.95;;
66987;SDS011;53908;51.464;-2.588;2022-09-27T04:26:12;9.32;;;1.50;;
66987;SDS011;53908;51.464;-2.588;2022-09-27T04:28:37;9.95;;;1.65;;
66987;SDS011;53908;51.464;-2.588;2022-09-27T04:31:03;9.13;;;1.63;;
66987;SDS011;53908;51.464;-2.588;2022-09-27T04:33:28;14.52;;;2.22;;
66987;SDS011;53908;51.464;-2.588;2022-09-27T04:35:54;9.65;;;1.38;;
66987;SDS011;53908;51.464;-2.588;2022-09-27T04:38:38;10.80;;;2.20;;
66987;SDS011;53908;51.464;-2.588;2022-09-27T04:41:03;10.18;;;2.25;;
66987;SDS011;53908;51.464;-2.588;2022-09-27T04:43:29;8.80;;;1.90;;
66987;SDS011;53908;51.464;-2.588;2022-09-27T04:45:54;13.45;;;1.67;;
66987;SDS011;53908;51.464;-2.588;2022-09-27T04:48:20;12.27;;;2.25;;
66987;SDS011;53908;51.464;-2.588;2022-09-27T04:50:45;13.98;;;1.90;;
66987;SDS011;53908;51.464;-2.588;2022-09-27T04:53:14;10.05;;;1.40;;
66987;SDS011;53908;51.464;-2.588;2022-09-27T04:55:43;17.25;;;1.95;;
66987;SDS011;53908;51.464;-2.588;2022-09-27T04:58:09;13.40;;;1.77;;
66987;SDS011;53908;51.464;-2.588;2022-09-27T05:00:35;8.50;;;1.48;;
66987;SDS011;53908;51.464;-2.588;2022-09-27T05:03:00;10.50;;;1.63;;
66987;SDS011;53908;51.464;-2.588;2022-09-27T05:05:26;9.95;;;1.52;;
66987;SDS011;53908;51.464;-2.588;2022-09-27T05:07:52;9.48;;;1.90;;
66987;SDS011;53908;51.464;-2.588;2022-09-27T05:10:17;10.75;;;1.98;;
66987;SDS011;53908;51.464;-2.588;2022-09-27T05:12:43;12.27;;;1.80;;
66987;SDS011;53908;51.464;-2.588;2022-09-27T05:15:08;9.63;;;1.60;;
66987;SDS011;53908;51.464;-2.588;2022-09-27T05:17:34;9.95;;;1.90;;
66987;SDS011;53908;51.464;-2.588;2022-09-27T05:19:59;9.80;;;1.50;;
66987;SDS011;53908;51.464;-2.588;2022-09-27T05:22:25;8.13;;;1.58;;
66987;SDS011;53908;51.464;-2.588;2022-09-27T05:24:50;13.57;;;1.75;;
66987;SDS011;53908;51.464;-2.588;2022-09-27T05:27:16;9.90;;;1.75;;
66987;SDS011;53908;51.464;-2.588;2022-09-27T05:29:45;12.20;;;1.50;;
66987;SDS011;53908;51.464;-2.588;2022-09-27T05:32:11;10.70;;;2.15;;
66987;SDS011;53908;51.464;-2.588;2022-09-27T05:34:36;9.18;;;1.70;;
66987;SDS011;53908;51.464;-2.588;2022-09-27T05:37:02;14.57;;;1.67;;
66987;SDS011;53908;51.464;-2.588;2022-09-27T05:39:27;11.32;;;1.83;;
66987;SDS011;53908;51.464;-2.588;2022-09-27T05:41:53;11.00;;;1.75;;
66987;SDS011;53908;51.464;-2.588;2022-09-27T05:44:20;12.60;;;2.20;;
66987;SDS011;53908;51.464;-2.588;2022-09-27T05:46:45;9.15;;;1.70;;
66987;SDS011;53908;51.464;-2.588;2022-09-27T05:49:12;8.50;;;1.65;;
66987;SDS011;53908;51.464;-2.588;2022-09-27T05:51:37;13.75;;;1.67;;
66987;SDS011;53908;51.464;-2.588;2022-09-27T05:54:03;14.02;;;2.22;;
66987;SDS011;53908;51.464;-2.588;2022-09-27T05:56:28;11.27;;;1.98;;
66987;SDS011;53908;51.464;-2.588;2022-09-27T05:58:54;14.07;;;2.25;;
66987;SDS011;53908;51.464;-2.588;2022-09-27T06:01:19;19.50;;;2.17;;
66987;SDS011;53908;51.464;-2.588;2022-09-27T06:03:45;11.30;;;1.75;;
66987;SDS011;53908;51.464;-2.588;2022-09-27T06:06:12;9.73;;;1.98;;
66987;SDS011;53908;51.464;-2.588;2022-09-27T06:08:39;18.83;;;2.10;;
66987;SDS011;53908;51.464;-2.588;2022-09-27T06:11:09;10.27;;;1.95;;
66987;SDS011;53908;51.464;-2.588;2022-09-27T06:13:38;13.93;;;2.30;;
66987;SDS011;53908;51.464;-2.588;2022-09-27T06:16:04;10.43;;;2.20;;
66987;SDS011;53908;51.464;-2.588;2022-09-27T06:18:30;11.73;;;2.65;;
66987;SDS011;53908;51.464;-2.588;2022-09-27T06:20:59;12.38;;;2.35;;
66987;SDS011;53908;51.464;-2.588;2022-09-27T06:23:25;12.27;;;1.98;;
66987;SDS011;53908;51.464;-2.588;2022-09-27T06:25:51;5.57;;;1.60;;
66987;SDS011;53908;51.464;-2.588;2022-09-27T06:28:17;10.13;;;1.77;;
66987;SDS011;53908;51.464;-2.588;2022-09-27T06:30:44;11.00;;;1.65;;
66987;SDS011;53908;51.464;-2.588;2022-09-27T06:33:11;6.88;;;1.92;;
66987;SDS011;53908;51.464;-2.588;2022-09-27T06:35:40;16.52;;;2.00;;
66987;SDS011;53908;51.464;-2.588;2022-09-27T06:38:06;11.02;;;1.90;;
66987;SDS011;53908;51.464;-2.588;2022-09-27T06:40:34;14.85;;;2.03;;
66987;SDS011;53908;51.464;-2.588;2022-09-27T06:43:00;11.90;;;1.98;;
66987;SDS011;53908;51.464;-2.588;2022-09-27T06:45:30;14.15;;;2.78;;
66987;SDS011;53908;51.464;-2.588;2022-09-27T06:47:56;14.32;;;2.42;;
66987;SDS011;53908;51.464;-2.588;2022-09-27T06:50:24;13.00;;;2.40;;
66987;SDS011;53908;51.464;-2.588;2022-09-27T06:52:50;16.80;;;2.15;;
66987;SDS011;53908;51.464;-2.588;2022-09-27T06:55:15;21.77;;;3.03;;
66987;SDS011;53908;51.464;-2.588;2022-09-27T06:57:41;14.68;;;2.40;;
66987;SDS011;53908;51.464;-2.588;2022-09-27T07:00:25;18.75;;;2.65;;
66987;SDS011;53908;51.464;-2.588;2022-09-27T07:02:52;9.63;;;2.35;;
66987;SDS011;53908;51.464;-2.588;2022-09-27T07:05:18;14.05;;;2.50;;
66987;SDS011;53908;51.464;-2.588;2022-09-27T07:07:44;12.50;;;1.80;;
66987;SDS011;53908;51.464;-2.588;2022-09-27T07:10:11;11.57;;;2.17;;
66987;SDS011;53908;51.464;-2.588;2022-09-27T07:12:37;12.00;;;1.70;;
66987;SDS011;53908;51.464;-2.588;2022-09-27T07:15:03;12.68;;;2.10;;
66987;SDS011;53908;51.464;-2.588;2022-09-27T07:17:29;10.32;;;2.22;;
66987;SDS011;53908;51.464;-2.588;2022-09-27T07:19:54;15.25;;;2.65;;
66987;SDS011;53908;51.464;-2.588;2022-09-27T07:22:20;15.40;;;2.38;;
66987;SDS011;53908;51.464;-2.588;2022-09-27T07:24:45;15.75;;;2.70;;
66987;SDS011;53908;51.464;-2.588;2022-09-27T07:27:11;18.25;;;3.15;;
66987;SDS011;53908;51.464;-2.588;2022-09-27T07:29:36;15.80;;;2.17;;
66987;SDS011;53908;51.464;-2.588;2022-09-27T07:32:02;15.95;;;2.47;;
66987;SDS011;53908;51.464;-2.588;2022-09-27T07:34:28;16.75;;;2.22;;
66987;SDS011;53908;51.464;-2.588;2022-09-27T07:36:57;14.15;;;2.80;;
66987;SDS011;53908;51.464;-2.588;2022-09-27T07:39:27;15.07;;;2.45;;
66987;SDS011;53908;51.464;-2.588;2022-09-27T07:41:52;12.98;;;2.20;;
66987;SDS011;53908;51.464;-2.588;2022-09-27T07:44:18;15.13;;;2.10;;
66987;SDS011;53908;51.464;-2.588;2022-09-27T07:46:43;13.15;;;2.15;;
66987;SDS011;53908;51.464;-2.588;2022-09-27T07:49:09;12.43;;;2.05;;
66987;SDS011;53908;51.464;-2.588;2022-09-27T07:51:34;16.48;;;2.33;;
66987;SDS011;53908;51.464;-2.588;2022-09-27T07:54:00;9.20;;;2.28;;
66987;SDS011;53908;51.464;-2.588;2022-09-27T07:56:25;15.15;;;2.90;;
66987;SDS011;53908;51.464;-2.588;2022-09-27T07:58:51;14.45;;;2.00;;
66987;SDS011;53908;51.464;-2.588;2022-09-27T08:01:17;10.85;;;1.77;;
66987;SDS011;53908;51.464;-2.588;2022-09-27T08:03:43;13.63;;;2.60;;
66987;SDS011;53908;51.464;-2.588;2022-09-27T08:06:08;12.27;;;2.00;;
66987;SDS011;53908;51.464;-2.588;2022-09-27T08:08:35;13.70;;;2.42;;
66987;SDS011;53908;51.464;-2.588;2022-09-27T08:11:09;19.52;;;2.50;;
66987;SDS011;53908;51.464;-2.588;2022-09-27T08:13:39;16.95;;;3.10;;
66987;SDS011;53908;51.464;-2.588;2022-09-27T08:16:08;13.73;;;2.55;;
66987;SDS011;53908;51.464;-2.588;2022-09-27T08:18:35;16.92;;;3.28;;
66987;SDS011;53908;51.464;-2.588;2022-09-27T08:21:00;27.23;;;4.38;;
66987;SDS011;53908;51.464;-2.588;2022-09-27T08:23:26;19.98;;;3.92;;
66987;SDS011;53908;51.464;-2.588;2022-09-27T08:25:52;22.58;;;3.20;;
66987;SDS011;53908;51.464;-2.588;2022-09-27T08:28:18;23.73;;;3.88;;
66987;SDS011;53908;51.464;-2.588;2022-09-27T08:30:43;27.33;;;3.53;;
66987;SDS011;53908;51.464;-2.588;2022-09-27T08:33:09;17.98;;;3.47;;
66987;SDS011;53908;51.464;-2.588;2022-09-27T08:35:34;22.83;;;2.92;;
66987;SDS011;53908;51.464;-2.588;2022-09-27T08:38:00;15.77;;;2.92;;
66987;SDS011;53908;51.464;-2.588;2022-09-27T08:40:40;19.42;;;4.47;;
66987;SDS011;53908;51.464;-2.588;2022-09-27T08:49:25;10.75;;;2.90;;
66987;SDS011;53908;51.464;-2.588;2022-09-27T08:51:57;16.83;;;3.30;;
66987;SDS011;53908;51.464;-2.588;2022-09-27T08:54:24;17.33;;;3.15;;
66987;SDS011;53908;51.464;-2.588;2022-09-27T08:56:53;16.77;;;3.35;;
66987;SDS011;53908;51.464;-2.588;2022-09-27T08:59:24;15.77;;;3.50;;
66987;SDS011;53908;51.464;-2.588;2022-09-27T09:01:52;15.05;;;2.95;;
66987;SDS011;53908;51.464;-2.588;2022-09-27T09:04:33;12.38;;;3.00;;
66987;SDS011;53908;51.464;-2.588;2022-09-27T09:07:05;15.65;;;3.40;;
66987;SDS011;53908;51.464;-2.588;2022-09-27T09:17:51;13.88;;;2.80;;
66987;SDS011;53908;51.464;-2.588;2022-09-27T09:20:34;15.18;;;2.80;;
66987;SDS011;53908;51.464;-2.588;2022-09-27T09:23:12;14.23;;;2.88;;
66987;SDS011;53908;51.464;-2.588;2022-09-27T09:33:35;9.73;;;2.65;;
66987;SDS011;53908;51.464;-2.588;2022-09-27T09:36:37;15.43;;;2.70;;
66987;SDS011;53908;51.464;-2.588;2022-09-27T09:44:09;10.82;;;2.72;;
66987;SDS011;53908;51.464;-2.588;2022-09-27T09:46:47;12.38;;;2.67;;
66987;SDS011;53908;51.464;-2.588;2022-09-27T09:52:04;11.35;;;2.50;;
66987;SDS011;53908;51.464;-2.588;2022-09-27T09:55:35;13.50;;;2.85;;
66987;SDS011;53908;51.464;-2.588;2022-09-27T09:57:53;12.90;;;2.55;;
66987;SDS011;53908;51.464;-2.588;2022-09-27T10:00:24;14.80;;;2.78;;
66987;SDS011;53908;51.464;-2.588;2022-09-27T10:02:50;12.85;;;2.70;;
66987;SDS011;53908;51.464;-2.588;2022-09-27T10:05:21;17.70;;;3.05;;
66987;SDS011;53908;51.464;-2.588;2022-09-27T10:07:48;13.48;;;2.97;;
66987;SDS011;53908;51.464;-2.588;2022-09-27T10:10:15;14.23;;;2.65;;
66987;SDS011;53908;51.464;-2.588;2022-09-27T10:12:42;16.48;;;2.58;;
66987;SDS011;53908;51.464;-2.588;2022-09-27T10:15:18;15.55;;;2.67;;
66987;SDS011;53908;51.464;-2.588;2022-09-27T10:17:49;12.75;;;2.47;;
66987;SDS011;53908;51.464;-2.588;2022-09-27T10:23:17;14.48;;;2.65;;
66987;SDS011;53908;51.464;-2.588;2022-09-27T10:28:25;14.27;;;2.42;;
66987;SDS011;53908;51.464;-2.588;2022-09-27T10:31:06;12.70;;;2.50;;
66987;SDS011;53908;51.464;-2.588;2022-09-27T10:33:33;13.98;;;2.55;;
66987;SDS011;53908;51.464;-2.588;2022-09-27T10:35:59;14.88;;;2.65;;
66987;SDS011;53908;51.464;-2.588;2022-09-27T10:38:32;17.65;;;3.15;;
66987;SDS011;53908;51.464;-2.588;2022-09-27T10:44:27;13.65;;;2.95;;
66987;SDS011;53908;51.464;-2.588;2022-09-27T10:46:56;13.65;;;2.65;;
66987;SDS011;53908;51.464;-2.588;2022-09-27T10:49:31;13.43;;;2.80;;
66987;SDS011;53908;51.464;-2.588;2022-09-27T10:51:58;20.08;;;3.00;;
66987;SDS011;53908;51.464;-2.588;2022-09-27T10:54:29;17.58;;;2.53;;
66987;SDS011;53908;51.464;-2.588;2022-09-27T10:57:03;11.50;;;2.17;;
66987;SDS011;53908;51.464;-2.588;2022-09-27T10:59:34;17.60;;;2.60;;
66987;SDS011;53908;51.464;-2.588;2022-09-27T11:02:01;14.02;;;2.55;;
66987;SDS011;53908;51.464;-2.588;2022-09-27T11:07:29;17.92;;;2.75;;
66987;SDS011;53908;51.464;-2.588;2022-09-27T11:09:56;17.15;;;2.83;;
66987;SDS011;53908;51.464;-2.588;2022-09-27T11:12:27;20.52;;;2.72;;
66987;SDS011;53908;51.464;-2.588;2022-09-27T11:14:55;15.90;;;2.35;;
66987;SDS011;53908;51.464;-2.588;2022-09-27T11:31:17;15.45;;;2.55;;
66987;SDS011;53908;51.464;-2.588;2022-09-27T11:36:33;15.95;;;3.30;;
66987;SDS011;53908;51.464;-2.588;2022-09-27T11:39:16;18.73;;;3.35;;
66987;SDS011;53908;51.464;-2.588;2022-09-27T11:54:17;18.27;;;2.72;;
66987;SDS011;53908;51.464;-2.588;2022-09-27T11:57:01;11.60;;;2.25;;
66987;SDS011;53908;51.464;-2.588;2022-09-27T12:10:11;12.15;;;2.33;;
66987;SDS011;53908;51.464;-2.588;2022-09-27T12:12:39;12.63;;;2.42;;
66987;SDS011;53908;51.464;-2.588;2022-09-27T12:15:13;12.85;;;2.80;;
66987;SDS011;53908;51.464;-2.588;2022-09-27T12:17:43;18.08;;;3.33;;
66987;SDS011;53908;51.464;-2.588;2022-09-27T12:20:21;12.00;;;2.63;;
66987;SDS011;53908;51.464;-2.588;2022-09-27T12:23:00;20.83;;;2.58;;
66987;SDS011;53908;51.464;-2.588;2022-09-27T12:25:28;13.38;;;2.60;;
66987;SDS011;53908;51.464;-2.588;2022-09-27T12:27:57;17.75;;;2.20;;
66987;SDS011;53908;51.464;-2.588;2022-09-27T12:30:28;14.88;;;2.75;;
66987;SDS011;53908;51.464;-2.588;2022-09-27T12:33:00;12.43;;;2.58;;
66987;SDS011;53908;51.464;-2.588;2022-09-27T12:35:31;11.27;;;1.80;;
66987;SDS011;53908;51.464;-2.588;2022-09-27T12:38:05;13.75;;;2.10;;
66987;SDS011;53908;51.464;-2.588;2022-09-27T12:40:40;12.15;;;1.95;;
66987;SDS011;53908;51.464;-2.588;2022-09-27T12:43:17;11.02;;;2.00;;
66987;SDS011;53908;51.464;-2.588;2022-09-27T12:45:50;13.30;;;2.13;;
66987;SDS011;53908;51.464;-2.588;2022-09-27T12:50:45;13.10;;;2.42;;
66987;SDS011;53908;51.464;-2.588;2022-09-27T12:53:22;14.65;;;2.50;;
66987;SDS011;53908;51.464;-2.588;2022-09-27T13:01:32;14.02;;;2.20;;
66987;SDS011;53908;51.464;-2.588;2022-09-27T13:10:25;15.48;;;2.60;;
66987;SDS011;53908;51.464;-2.588;2022-09-27T13:12:21;12.60;;;2.25;;
66987;SDS011;53908;51.464;-2.588;2022-09-27T13:23:15;13.50;;;2.10;;
66987;SDS011;53908;51.464;-2.588;2022-09-27T13:28:58;16.48;;;2.40;;
66987;SDS011;53908;51.464;-2.588;2022-09-27T13:34:41;16.33;;;2.72;;
66987;SDS011;53908;51.464;-2.588;2022-09-27T13:37:21;12.80;;;2.42;;
66987;SDS011;53908;51.464;-2.588;2022-09-27T13:42:53;12.65;;;2.15;;
66987;SDS011;53908;51.464;-2.588;2022-09-27T13:45:49;12.60;;;2.63;;
66987;SDS011;53908;51.464;-2.588;2022-09-27T13:48:26;13.25;;;2.10;;
66987;SDS011;53908;51.464;-2.588;2022-09-27T13:53:27;11.48;;;2.10;;
66987;SDS011;53908;51.464;-2.588;2022-09-27T13:55:56;10.82;;;2.33;;
66987;SDS011;53908;51.464;-2.588;2022-09-27T13:59:04;14.50;;;2.13;;
66987;SDS011;53908;51.464;-2.588;2022-09-27T14:01:59;13.88;;;2.70;;
66987;SDS011;53908;51.464;-2.588;2022-09-27T14:04:13;11.65;;;2.05;;
66987;SDS011;53908;51.464;-2.588;2022-09-27T14:06:49;10.88;;;2.08;;
66987;SDS011;53908;51.464;-2.588;2022-09-27T14:09:24;17.10;;;2.30;;
66987;SDS011;53908;51.464;-2.588;2022-09-27T14:11:55;13.50;;;2.38;;
66987;SDS011;53908;51.464;-2.588;2022-09-27T14:14:23;14.43;;;2.15;;
66987;SDS011;53908;51.464;-2.588;2022-09-27T14:16:51;10.50;;;1.90;;
66987;SDS011;53908;51.464;-2.588;2022-09-27T14:19:18;7.60;;;1.48;;
66987;SDS011;53908;51.464;-2.588;2022-09-27T14:21:49;11.10;;;2.03;;
66987;SDS011;53908;51.464;-2.588;2022-09-27T14:30:11;6.80;;;1.33;;
66987;SDS011;53908;51.464;-2.588;2022-09-27T14:32:46;6.10;;;1.85;;
66987;SDS011;53908;51.464;-2.588;2022-09-27T14:35:16;9.43;;;1.63;;
66987;SDS011;53908;51.464;-2.588;2022-09-27T14:38:29;15.27;;;2.03;;
66987;SDS011;53908;51.464;-2.588;2022-09-27T14:41:00;12.38;;;2.03;;
66987;SDS011;53908;51.464;-2.588;2022-09-27T14:43:27;13.27;;;2.38;;
66987;SDS011;53908;51.464;-2.588;2022-09-27T14:46:01;10.25;;;2.50;;
66987;SDS011;53908;51.464;-2.588;2022-09-27T14:53:41;15.95;;;2.45;;
66987;SDS011;53908;51.464;-2.588;2022-09-27T14:56:18;10.55;;;2.20;;
66987;SDS011;53908;51.464;-2.588;2022-09-27T14:58:47;10.60;;;2.05;;
66987;SDS011;53908;51.464;-2.588;2022-09-27T15:01:15;14.00;;;2.40;;
66987;SDS011;53908;51.464;-2.588;2022-09-27T15:03:44;10.70;;;1.90;;
66987;SDS011;53908;51.464;-2.588;2022-09-27T15:06:10;6.53;;;1.38;;
66987;SDS011;53908;51.464;-2.588;2022-09-27T15:08:36;8.75;;;2.20;;
66987;SDS011;53908;51.464;-2.588;2022-09-27T15:11:03;7.90;;;1.90;;
66987;SDS011;53908;51.464;-2.588;2022-09-27T15:13:30;11.98;;;2.55;;
66987;SDS011;53908;51.464;-2.588;2022-09-27T15:15:56;12.95;;;2.33;;
66987;SDS011;53908;51.464;-2.588;2022-09-27T15:18:30;9.90;;;2.25;;
66987;SDS011;53908;51.464;-2.588;2022-09-27T15:20:57;13.23;;;2.55;;
66987;SDS011;53908;51.464;-2.588;2022-09-27T15:23:28;7.45;;;1.67;;
66987;SDS011;53908;51.464;-2.588;2022-09-27T15:25:56;14.55;;;2.50;;
66987;SDS011;53908;51.464;-2.588;2022-09-27T15:28:26;10.20;;;2.40;;
66987;SDS011;53908;51.464;-2.588;2022-09-27T15:30:53;14.27;;;2.03;;
66987;SDS011;53908;51.464;-2.588;2022-09-27T15:33:26;12.20;;;2.20;;
66987;SDS011;53908;51.464;-2.588;2022-09-27T15:35:56;10.00;;;1.95;;
66987;SDS011;53908;51.464;-2.588;2022-09-27T15:43:21;14.35;;;2.40;;
66987;SDS011;53908;51.464;-2.588;2022-09-27T15:45:54;10.98;;;1.92;;
66987;SDS011;53908;51.464;-2.588;2022-09-27T15:48:20;11.98;;;2.30;;
66987;SDS011;53908;51.464;-2.588;2022-09-27T15:50:46;13.63;;;2.38;;
66987;SDS011;53908;51.464;-2.588;2022-09-27T15:53:38;16.40;;;2.25;;
66987;SDS011;53908;51.464;-2.588;2022-09-27T15:56:00;12.63;;;2.20;;
66987;SDS011;53908;51.464;-2.588;2022-09-27T15:58:29;12.32;;;1.98;;
66987;SDS011;53908;51.464;-2.588;2022-09-27T16:00:59;14.07;;;1.97;;
66987;SDS011;53908;51.464;-2.588;2022-09-27T16:03:32;10.15;;;2.05;;
66987;SDS011;53908;51.464;-2.588;2022-09-27T16:05:58;9.82;;;2.47;;
66987;SDS011;53908;51.464;-2.588;2022-09-27T16:08:26;13.18;;;2.30;;
66987;SDS011;53908;51.464;-2.588;2022-09-27T16:10:53;10.25;;;1.77;;
66987;SDS011;53908;51.464;-2.588;2022-09-27T16:13:20;10.55;;;2.00;;
66987;SDS011;53908;51.464;-2.588;2022-09-27T16:15:46;6.72;;;1.48;;
66987;SDS011;53908;51.464;-2.588;2022-09-27T16:18:12;8.32;;;1.58;;
66987;SDS011;53908;51.464;-2.588;2022-09-27T16:20:38;7.35;;;1.83;;
66987;SDS011;53908;51.464;-2.588;2022-09-27T16:23:03;10.88;;;1.60;;
66987;SDS011;53908;51.464;-2.588;2022-09-27T16:25:30;7.53;;;1.85;;
66987;SDS011;53908;51.464;-2.588;2022-09-27T16:27:56;6.85;;;2.03;;
66987;SDS011;53908;51.464;-2.588;2022-09-27T16:30:23;8.00;;;1.70;;
66987;SDS011;53908;51.464;-2.588;2022-09-27T16:32:48;6.28;;;1.30;;
66987;SDS011;53908;51.464;-2.588;2022-09-27T16:35:14;7.30;;;1.92;;
66987;SDS011;53908;51.464;-2.588;2022-09-27T16:37:41;8.27;;;1.58;;
66987;SDS011;53908;51.464;-2.588;2022-09-27T16:40:07;13.75;;;2.38;;
66987;SDS011;53908;51.464;-2.588;2022-09-27T16:42:34;9.02;;;1.77;;
66987;SDS011;53908;51.464;-2.588;2022-09-27T16:45:00;7.35;;;1.52;;
66987;SDS011;53908;51.464;-2.588;2022-09-27T16:47:29;9.88;;;1.60;;
66987;SDS011;53908;51.464;-2.588;2022-09-27T16:49:55;7.80;;;1.40;;
66987;SDS011;53908;51.464;-2.588;2022-09-27T16:52:39;4.38;;;1.30;;
66987;SDS011;53908;51.464;-2.588;2022-09-27T16:55:06;6.72;;;1.50;;
66987;SDS011;53908;51.464;-2.588;2022-09-27T16:57:32;4.05;;;1.40;;
66987;SDS011;53908;51.464;-2.588;2022-09-27T16:59:58;6.10;;;1.85;;
66987;SDS011;53908;51.464;-2.588;2022-09-27T17:02:24;4.97;;;1.40;;
66987;SDS011;53908;51.464;-2.588;2022-09-27T17:04:50;5.70;;;1.40;;
66987;SDS011;53908;51.464;-2.588;2022-09-27T17:07:16;8.27;;;1.60;;
66987;SDS011;53908;51.464;-2.588;2022-09-27T17:09:42;8.10;;;1.65;;
66987;SDS011;53908;51.464;-2.588;2022-09-27T17:12:07;6.20;;;1.65;;
66987;SDS011;53908;51.464;-2.588;2022-09-27T17:14:33;7.68;;;1.92;;
66987;SDS011;53908;51.464;-2.588;2022-09-27T17:16:58;10.85;;;2.00;;
66987;SDS011;53908;51.464;-2.588;2022-09-27T17:19:23;8.05;;;1.70;;
66987;SDS011;53908;51.464;-2.588;2022-09-27T17:21:49;13.27;;;1.85;;
66987;SDS011;53908;51.464;-2.588;2022-09-27T17:24:15;10.30;;;2.00;;
66987;SDS011;53908;51.464;-2.588;2022-09-27T17:26:41;8.27;;;2.08;;
66987;SDS011;53908;51.464;-2.588;2022-09-27T17:29:06;10.68;;;2.10;;
66987;SDS011;53908;51.464;-2.588;2022-09-27T17:31:33;7.95;;;1.85;;